Time;durP1;ratioP1;P1;durP2;ratioP2;P2;SDS_P1;SDS_P2;PMS_P1;PMS_P2;Temp;Humidity;BMP_temperature;BMP_pressure;BME280_temperature;BME280_humidity;BME280_pressure;Samples;Min_cycle;Max_cycle;Signal;HPM_P1;HPM_P2
2023/09/13 00:00:24;;;;;;;6.63;3.03;;;;;;;16.34;54.28;94194.09;5082984;28;20261;-84
2023/09/13 00:02:49;;;;;;;12.27;2.60;;;;;;;16.35;54.14;94185.69;5083070;28;20024;-84
2023/09/13 00:05:15;;;;;;;7.22;3.10;;;;;;;16.32;54.59;94186.38;5082817;28;20095;-84
2023/09/13 00:07:40;;;;;;;5.90;2.38;;;;;;;16.31;54.39;94187.50;5083019;28;20020;-83
2023/09/13 00:10:06;;;;;;;10.48;2.42;;;;;;;16.29;54.85;94188.97;5082869;28;20122;-83
2023/09/13 00:12:32;;;;;;;4.65;2.22;;;;;;;16.25;54.71;94197.72;5065067;28;20107;-83
2023/09/13 00:14:57;;;;;;;6.30;2.63;;;;;;;16.22;54.69;94193.03;5083097;28;20020;-83
2023/09/13 00:17:23;;;;;;;8.40;2.47;;;;;;;16.20;54.70;94189.91;5083017;28;20024;-83
2023/09/13 00:19:49;;;;;;;10.20;2.90;;;;;;;16.20;54.70;94194.47;5082803;28;20257;-83
2023/09/13 00:22:14;;;;;;;9.82;2.92;;;;;;;16.20;54.22;94195.28;5082654;28;20035;-83
2023/09/13 00:24:40;;;;;;;16.63;3.10;;;;;;;16.18;55.02;94194.03;5082866;28;20099;-83
2023/09/13 00:27:05;;;;;;;5.30;2.13;;;;;;;16.14;55.09;94193.94;5064962;28;20192;-83
2023/09/13 00:29:33;;;;;;;3.97;2.42;;;;;;;16.15;54.47;94198.19;5065216;28;20020;-83
2023/09/13 00:32:02;;;;;;;7.88;2.75;;;;;;;16.10;54.25;94193.06;5082710;28;20024;-83
2023/09/13 00:34:27;;;;;;;5.75;2.38;;;;;;;16.14;53.48;94196.63;5063561;28;20025;-83
2023/09/13 00:36:53;;;;;;;7.45;2.60;;;;;;;16.14;53.62;94195.81;5082454;28;20148;-83
2023/09/13 00:39:18;;;;;;;6.47;2.35;;;;;;;16.13;53.79;94194.28;5080863;28;20200;-82
2023/09/13 00:41:44;;;;;;;9.88;2.25;;;;;;;16.09;54.07;94188.00;5064799;28;20035;-84
2023/09/13 00:44:09;;;;;;;9.10;2.53;;;;;;;16.07;54.54;94195.63;5082703;28;20246;-84
2023/09/13 00:46:35;;;;;;;18.50;2.95;;;;;;;16.10;54.84;94193.06;5083045;28;20067;-84
2023/09/13 00:49:02;;;;;;;6.60;2.53;;;;;;;16.08;55.14;94192.63;5086681;28;20024;-83
2023/09/13 00:51:28;;;;;;;6.45;2.10;;;;;;;16.01;53.95;94195.06;5086737;28;20024;-82
2023/09/13 00:53:55;;;;;;;9.75;2.70;;;;;;;16.02;52.46;94191.28;5086560;28;20028;-82
2023/09/13 00:56:23;;;;;;;6.05;2.60;;;;;;;16.03;52.10;94195.53;5086707;28;20020;-82
2023/09/13 00:58:51;;;;;;;6.32;2.75;;;;;;;16.01;53.67;94195.84;5086120;28;20020;-81
2023/09/13 01:01:17;;;;;;;6.55;2.80;;;;;;;16.05;53.75;94187.91;5086484;28;20038;-81
2023/09/13 01:03:43;;;;;;;9.93;2.65;;;;;;;16.01;54.35;94192.38;5086306;28;20024;-81
2023/09/13 01:06:09;;;;;;;5.60;2.67;;;;;;;15.99;54.77;94197.31;5068351;28;20024;-82
2023/09/13 01:08:39;;;;;;;6.18;2.00;;;;;;;15.96;55.23;94195.31;5068327;28;20029;-82
2023/09/13 01:11:06;;;;;;;5.65;2.70;;;;;;;15.91;55.36;94200.91;5068148;28;20051;-82
2023/09/13 01:13:31;;;;;;;10.95;2.90;;;;;;;15.87;55.85;94198.13;5086256;28;20072;-81
2023/09/13 01:16:18;;;;;;;13.48;2.50;;;;;;;15.87;56.15;94211.56;5068175;28;20028;-82
2023/09/13 01:19:22;;;;;;;4.20;2.05;;;;;;;15.82;56.07;94207.19;5085684;28;20082;-83
2023/09/13 01:21:56;;;;;;;7.13;2.50;;;;;;;15.74;56.31;94204.63;5086019;28;20051;-82
2023/09/13 01:24:52;;;;;;;6.78;2.70;;;;;;;15.76;56.34;94205.84;5068171;28;20032;-82
2023/09/13 01:27:36;;;;;;;4.68;2.38;;;;;;;15.69;56.43;94200.22;5085912;28;20028;-82
2023/09/13 01:30:04;;;;;;;8.00;2.78;;;;;;;15.66;56.37;94200.91;5085946;28;20031;-82
2023/09/13 01:32:32;;;;;;;13.40;2.67;;;;;;;15.73;55.21;94197.69;5085988;28;20035;-82
2023/09/13 01:34:58;;;;;;;5.43;3.47;;;;;;;15.73;55.19;94201.13;5068200;28;20222;-82
2023/09/13 01:37:23;;;;;;;6.97;2.22;;;;;;;15.75;55.03;94198.94;5067890;28;20016;-82
2023/09/13 01:39:49;;;;;;;11.07;2.92;;;;;;;15.81;54.97;94199.47;5085545;28;20032;-82
2023/09/13 01:42:15;;;;;;;7.50;3.50;;;;;;;15.79;55.78;94201.72;5085672;28;20028;-81
2023/09/13 01:44:45;;;;;;;6.97;2.92;;;;;;;15.77;54.32;94209.31;5085546;28;20025;-82
2023/09/13 01:47:12;;;;;;;7.50;2.90;;;;;;;15.71;55.67;94205.25;5085534;28;20092;-82
2023/09/13 01:49:40;;;;;;;5.72;2.67;;;;;;;15.68;56.52;94209.41;5067588;28;20039;-82
2023/09/13 01:52:05;;;;;;;6.85;2.30;;;;;;;15.61;56.51;94204.59;5085467;28;20036;-83
2023/09/13 01:54:35;;;;;;;7.07;2.67;;;;;;;15.56;57.04;94206.72;5067614;28;20027;-82
2023/09/13 01:57:01;;;;;;;9.25;2.63;;;;;;;15.56;56.98;94201.34;5067623;28;20323;-82
2023/09/13 01:59:26;;;;;;;6.45;2.63;;;;;;;15.57;57.48;94201.03;5066638;28;20100;-83
2023/09/13 02:01:52;;;;;;;9.85;2.47;;;;;;;15.43;57.78;94197.91;5085477;28;20057;-83
2023/09/13 02:04:17;;;;;;;6.88;2.72;;;;;;;15.39;58.47;94195.09;5085132;28;20126;-84
2023/09/13 02:06:43;;;;;;;9.77;2.58;;;;;;;15.32;58.67;94200.22;5067312;28;20048;-82
2023/09/13 02:09:08;;;;;;;6.35;3.00;;;;;;;15.37;58.64;94202.69;5083926;28;20062;-82
2023/09/13 02:11:33;;;;;;;4.07;2.53;;;;;;;15.37;58.94;94205.38;5085061;28;20369;-82
2023/09/13 02:13:59;;;;;;;4.90;2.70;;;;;;;15.26;58.89;94198.88;5085124;28;20227;-82
2023/09/13 02:16:24;;;;;;;9.25;2.92;;;;;;;15.23;58.65;94208.38;5067163;28;20390;-81
2023/09/13 02:18:50;;;;;;;6.63;2.60;;;;;;;15.24;58.90;94209.97;5084920;28;20314;-82
2023/09/13 02:21:16;;;;;;;8.10;2.97;;;;;;;15.24;57.62;94187.66;5084860;28;20024;-82
2023/09/13 02:23:42;;;;;;;9.10;3.00;;;;;;;15.20;57.74;94190.25;5085039;28;20035;-82
2023/09/13 02:26:24;;;;;;;6.57;2.67;;;;;;;15.12;58.28;94199.19;5083568;28;20028;-82
2023/09/13 02:28:49;;;;;;;5.40;2.70;;;;;;;15.09;58.97;94197.16;5083580;28;20016;-82
2023/09/13 02:31:25;;;;;;;10.10;3.00;;;;;;;15.12;59.38;94193.84;5084751;28;20047;-82
2023/09/13 02:33:51;;;;;;;8.80;2.85;;;;;;;15.07;59.36;94190.56;5084689;28;20055;-82
2023/09/13 02:36:17;;;;;;;7.75;2.92;;;;;;;15.02;59.88;94202.28;5084671;28;20025;-82
2023/09/13 02:38:42;;;;;;;7.45;3.03;;;;;;;15.04;59.64;94200.84;5084752;28;20016;-83
2023/09/13 02:41:08;;;;;;;11.88;2.38;;;;;;;14.94;59.66;94190.53;5066637;28;20268;-82
2023/09/13 02:43:33;;;;;;;4.60;2.35;;;;;;;14.98;59.52;94196.00;5084453;28;20020;-82
2023/09/13 02:45:58;;;;;;;8.25;2.90;;;;;;;15.01;58.91;94200.72;5084505;28;20016;-82
2023/09/13 02:48:25;;;;;;;6.93;2.65;;;;;;;15.03;58.90;94212.69;5084445;28;20023;-83
2023/09/13 02:50:50;;;;;;;8.45;2.17;;;;;;;15.04;58.30;94214.28;5084495;28;20013;-83
2023/09/13 02:53:15;;;;;;;9.88;3.03;;;;;;;15.04;58.31;94214.28;5084264;28;20161;-83
2023/09/13 02:55:41;;;;;;;6.93;2.75;;;;;;;15.02;58.58;94227.25;5084125;28;20036;-82
2023/09/13 02:58:08;;;;;;;9.43;2.65;;;;;;;15.01;58.90;94224.88;5084226;28;20024;-82
2023/09/13 03:00:34;;;;;;;5.38;2.85;;;;;;;15.01;58.88;94222.19;5084244;28;20020;-83
2023/09/13 03:02:59;;;;;;;11.20;2.58;;;;;;;15.00;58.73;94221.44;5084221;28;20017;-83
2023/09/13 03:05:25;;;;;;;12.43;2.92;;;;;;;14.96;59.50;94220.53;5083875;28;20333;-83
2023/09/13 03:07:51;;;;;;;13.35;3.45;;;;;;;14.91;60.02;94225.31;5083157;28;20107;-81
2023/09/13 03:10:16;;;;;;;12.90;3.58;;;;;;;14.83;60.57;94221.59;5083881;28;20079;-82
2023/09/13 03:12:42;;;;;;;7.15;3.13;;;;;;;14.81;60.86;94223.81;5083834;28;20318;-82
2023/09/13 03:15:07;;;;;;;9.30;3.97;;;;;;;14.75;60.99;94219.78;5066028;28;20027;-81
2023/09/13 03:17:33;;;;;;;11.50;3.40;;;;;;;14.72;61.56;94225.81;5083822;28;20023;-82
2023/09/13 03:19:58;;;;;;;6.95;2.97;;;;;;;14.71;61.69;94225.00;5066028;28;20028;-82
2023/09/13 03:22:24;;;;;;;11.05;2.92;;;;;;;14.62;62.24;94225.09;5083745;28;20089;-84
2023/09/13 03:24:50;;;;;;;12.73;4.00;;;;;;;14.59;62.68;94228.44;5065738;28;20027;-84
2023/09/13 03:27:15;;;;;;;17.55;2.85;;;;;;;14.58;61.94;94226.88;5065795;28;20028;-84
2023/09/13 03:29:41;;;;;;;7.28;3.47;;;;;;;14.52;61.84;94228.16;5065796;28;20016;-83
2023/09/13 03:32:06;;;;;;;18.23;3.75;;;;;;;14.46;61.98;94226.78;5083443;28;20066;-83
2023/09/13 03:34:32;;;;;;;11.48;4.47;;;;;;;14.44;62.48;94231.69;5083466;28;20028;-83
2023/09/13 03:36:58;;;;;;;11.25;3.90;;;;;;;14.42;62.89;94225.88;5083530;28;20311;-83
2023/09/13 03:39:25;;;;;;;7.60;2.92;;;;;;;14.39;62.65;94231.88;5083505;28;20021;-84
2023/09/13 03:41:51;;;;;;;9.82;3.33;;;;;;;14.37;62.40;94226.84;5083470;28;20039;-83
2023/09/13 03:44:16;;;;;;;14.43;3.03;;;;;;;14.36;61.65;94219.13;5083172;28;20020;-84
2023/09/13 03:46:42;;;;;;;12.98;3.60;;;;;;;14.43;61.60;94219.38;5083284;28;20016;-84
2023/09/13 03:49:07;;;;;;;8.15;3.05;;;;;;;14.49;61.78;94233.38;5083296;28;20299;-84
2023/09/13 03:51:34;;;;;;;10.07;3.22;;;;;;;14.46;61.97;94234.81;5065593;28;20020;-83
2023/09/13 03:53:59;;;;;;;6.53;3.05;;;;;;;14.41;61.95;94230.44;5083248;28;20065;-82
2023/09/13 03:56:25;;;;;;;12.15;3.28;;;;;;;14.43;62.01;94230.09;5083264;28;20024;-82
2023/09/13 03:58:50;;;;;;;11.55;3.78;;;;;;;14.42;62.12;94232.00;5083095;28;20021;-82
2023/09/13 04:01:16;;;;;;;6.30;2.83;;;;;;;14.45;62.30;94239.41;5083123;28;20021;-82
2023/09/13 04:03:41;;;;;;;13.52;3.20;;;;;;;14.43;62.28;94238.16;5082952;28;20028;-82
2023/09/13 04:06:07;;;;;;;9.27;3.13;;;;;;;14.39;62.79;94234.56;5083191;28;20021;-81
2023/09/13 04:08:32;;;;;;;9.75;3.33;;;;;;;14.37;62.87;94236.78;5083076;28;20048;-82
2023/09/13 04:10:57;;;;;;;16.85;3.75;;;;;;;14.36;62.89;94230.63;5064981;28;20041;-83
2023/09/13 04:13:23;;;;;;;21.52;3.80;;;;;;;14.40;63.03;94236.91;5083013;28;20024;-82
2023/09/13 04:15:51;;;;;;;17.83;3.60;;;;;;;14.38;63.28;94233.00;5082897;28;20023;-83
2023/09/13 04:18:17;;;;;;;9.88;3.50;;;;;;;14.42;62.67;94233.91;5082930;28;20016;-84
2023/09/13 04:20:44;;;;;;;15.13;2.92;;;;;;;14.38;62.71;94230.31;5083042;28;20261;-84
2023/09/13 04:23:09;;;;;;;10.23;3.10;;;;;;;14.38;62.96;94233.00;5082474;28;20081;-85
2023/09/13 04:25:36;;;;;;;8.65;2.60;;;;;;;14.37;63.16;94237.59;5065163;28;20047;-85
2023/09/13 04:28:01;;;;;;;17.05;3.08;;;;;;;14.41;63.19;94233.13;5083305;28;20199;-84
2023/09/13 04:30:27;;;;;;;26.13;4.95;;;;;;;14.38;63.28;94233.00;5082932;28;20095;-81
2023/09/13 04:32:52;;;;;;;25.48;4.05;;;;;;;14.37;63.74;94231.41;5082782;28;20265;-81
2023/09/13 04:35:18;;;;;;;13.48;3.13;;;;;;;14.35;63.61;94230.97;5082824;28;20272;-81
2023/09/13 04:37:43;;;;;;;13.95;3.83;;;;;;;14.35;63.60;94234.44;5082729;28;20024;-81
2023/09/13 04:40:09;;;;;;;21.30;4.07;;;;;;;14.43;63.55;94240.84;5082519;28;20238;-81
2023/09/13 04:42:42;;;;;;;10.13;3.58;;;;;;;14.50;62.69;94227.69;5082828;28;20028;-81
2023/09/13 04:45:08;;;;;;;15.38;3.30;;;;;;;14.59;61.98;94231.13;5082631;28;20087;-81
2023/09/13 04:47:35;;;;;;;12.85;4.38;;;;;;;14.68;62.19;94235.63;5064685;28;20021;-81
2023/09/13 04:50:00;;;;;;;16.38;4.18;;;;;;;14.74;62.18;94232.41;5082706;28;20024;-82
2023/09/13 04:52:26;;;;;;;14.85;3.17;;;;;;;14.87;60.96;94243.19;5064586;28;20044;-82
2023/09/13 04:54:51;;;;;;;7.82;3.35;;;;;;;14.97;59.84;94235.50;5082559;28;20099;-82
2023/09/13 04:57:17;;;;;;;16.10;3.75;;;;;;;15.07;59.73;94236.22;5082411;28;20021;-82
2023/09/13 04:59:44;;;;;;;25.95;4.68;;;;;;;15.20;60.05;94238.59;5082210;28;20335;-81
2023/09/13 05:02:13;;;;;;;10.10;3.20;;;;;;;15.28;58.82;94236.13;5064558;28;20028;-82
2023/09/13 05:04:39;;;;;;;11.13;3.08;;;;;;;15.36;58.09;94238.72;5082432;28;20020;-82
2023/09/13 05:07:06;;;;;;;8.70;3.58;;;;;;;15.46;57.82;94229.44;5082201;28;20052;-81
2023/09/13 05:09:32;;;;;;;10.38;3.75;;;;;;;15.56;57.16;94236.28;5082510;28;20021;-81
2023/09/13 05:11:57;;;;;;;8.88;3.65;;;;;;;15.62;57.23;94233.03;5064556;28;20052;-84
2023/09/13 05:14:23;;;;;;;10.35;4.57;;;;;;;15.68;56.84;94228.22;5064474;28;20062;-83
2023/09/13 05:16:48;;;;;;;13.35;3.95;;;;;;;15.79;56.67;94239.34;5082408;28;20215;-83
2023/09/13 05:19:14;;;;;;;10.38;4.10;;;;;;;15.86;56.60;94228.81;5082176;28;20084;-83
2023/09/13 05:21:39;;;;;;;10.05;4.07;;;;;;;15.98;56.20;94236.09;5082332;28;20322;-84
2023/09/13 05:24:05;;;;;;;16.75;4.50;;;;;;;16.02;56.08;94231.59;5082081;28;20020;-82
2023/09/13 05:26:30;;;;;;;11.20;4.57;;;;;;;16.07;56.44;94242.13;5082366;28;20027;-82
2023/09/13 05:28:56;;;;;;;15.02;4.95;;;;;;;16.14;56.31;94234.28;5082235;28;20265;-82
2023/09/13 05:31:21;;;;;;;18.63;5.68;;;;;;;16.15;56.39;94245.81;5082226;28;20029;-82
2023/09/13 05:33:47;;;;;;;29.75;5.15;;;;;;;16.20;56.16;94248.25;5082915;28;20027;-84
2023/09/13 05:36:13;;;;;;;22.83;6.50;;;;;;;16.20;56.56;94243.69;5086129;28;20254;-85
2023/09/13 05:38:39;;;;;;;17.83;4.97;;;;;;;16.23;56.42;94237.59;5068166;28;20192;-84
2023/09/13 05:41:11;;;;;;;28.67;6.05;;;;;;;16.32;56.45;94242.06;5085468;28;20066;-84
2023/09/13 05:43:41;;;;;;;17.75;5.82;;;;;;;16.41;56.64;94237.34;5085077;28;20028;-85
2023/09/13 05:46:07;;;;;;;12.85;4.63;;;;;;;16.47;56.80;94241.38;5067692;28;20103;-83
2023/09/13 05:48:34;;;;;;;14.07;4.32;;;;;;;16.51;56.00;94247.66;5085576;28;20119;-84
2023/09/13 05:51:00;;;;;;;18.63;4.75;;;;;;;16.58;55.25;94247.81;5085311;28;20069;-79
2023/09/13 05:53:25;;;;;;;20.58;5.57;;;;;;;16.60;54.72;94245.59;5085319;28;20290;-80
2023/09/13 05:55:51;;;;;;;11.50;5.35;;;;;;;16.65;55.71;94237.28;5085243;28;20031;-81
2023/09/13 05:58:17;;;;;;;17.42;4.80;;;;;;;16.67;55.31;94241.53;5084881;28;20048;-81
2023/09/13 06:00:48;;;;;;;13.02;5.32;;;;;;;16.74;55.98;94249.81;5084838;28;20088;-80
2023/09/13 06:03:17;;;;;;;29.02;6.00;;;;;;;16.77;55.98;94246.41;5085129;28;20024;-80
2023/09/13 06:05:43;;;;;;;23.20;4.93;;;;;;;16.80;56.54;94238.44;5085025;28;20319;-80
2023/09/13 06:08:09;;;;;;;20.63;5.97;;;;;;;16.87;56.18;94240.56;5067185;28;20029;-80
2023/09/13 06:10:34;;;;;;;19.30;5.40;;;;;;;16.92;55.66;94240.34;5085053;28;20044;-80
2023/09/13 06:13:00;;;;;;;25.48;5.28;;;;;;;16.95;56.17;94234.25;5084964;28;20219;-80
2023/09/13 06:15:25;;;;;;;23.73;6.68;;;;;;;17.02;55.47;94239.84;5067039;28;20024;-79
2023/09/13 06:17:54;;;;;;;17.98;5.68;;;;;;;17.10;54.87;94240.03;5067050;28;20033;-79
2023/09/13 06:20:22;;;;;;;21.98;6.20;;;;;;;17.20;55.26;94239.53;5084671;28;20035;-79
2023/09/13 06:22:48;;;;;;;11.52;4.85;;;;;;;17.27;53.58;94242.41;5085007;28;20044;-79
2023/09/13 06:25:16;;;;;;;16.42;4.30;;;;;;;17.33;53.20;94240.25;5084595;28;20032;-79
2023/09/13 06:27:42;;;;;;;11.95;4.32;;;;;;;17.33;53.08;94248.31;5084662;28;20291;-79
2023/09/13 06:30:08;;;;;;;10.77;4.00;;;;;;;17.37;53.01;94239.19;5066788;28;20032;-81
2023/09/13 06:32:34;;;;;;;19.33;4.70;;;;;;;17.48;52.39;94252.16;5084513;28;20338;-79
2023/09/13 06:34:59;;;;;;;16.48;4.35;;;;;;;17.48;52.18;94244.06;5084741;28;20036;-80
2023/09/13 06:37:28;;;;;;;15.85;5.15;;;;;;;17.53;51.67;94249.22;5084602;28;20054;-80
2023/09/13 06:39:54;;;;;;;12.75;3.83;;;;;;;17.57;51.97;94247.41;5083305;28;20322;-79
2023/09/13 06:42:19;;;;;;;13.02;4.72;;;;;;;17.63;52.63;94248.69;5084390;28;20024;-79
2023/09/13 06:44:45;;;;;;;18.35;4.22;;;;;;;17.71;51.97;94253.13;5066209;28;20358;-79
2023/09/13 06:47:10;;;;;;;17.33;4.57;;;;;;;17.72;52.14;94251.22;5084495;28;20027;-79
2023/09/13 06:49:35;;;;;;;16.92;4.63;;;;;;;17.70;51.93;94243.47;5084298;28;20050;-79
2023/09/13 06:52:02;;;;;;;20.83;5.15;;;;;;;17.88;50.13;94252.00;5084289;28;20016;-78
2023/09/13 06:54:27;;;;;;;16.83;5.28;;;;;;;17.98;50.00;94258.78;5084443;28;20051;-78
2023/09/13 06:56:53;;;;;;;21.85;5.40;;;;;;;18.08;49.97;94260.94;5066268;28;20028;-79
2023/09/13 06:59:19;;;;;;;13.73;5.18;;;;;;;18.16;50.04;94262.69;5084209;28;20024;-79
2023/09/13 07:01:45;;;;;;;22.85;6.38;;;;;;;18.30;50.03;94266.81;5083960;28;20020;-80
2023/09/13 07:04:11;;;;;;;17.90;5.40;;;;;;;18.33;49.84;94260.72;5084051;28;20125;-80
2023/09/13 07:06:55;;;;;;;24.02;5.18;;;;;;;18.37;50.04;94267.75;5065925;28;20036;-80
2023/09/13 07:09:20;;;;;;;19.02;6.20;;;;;;;18.50;49.49;94262.25;5066034;28;20074;-80
2023/09/13 07:11:45;;;;;;;14.45;5.38;;;;;;;18.56;49.88;94256.22;5083707;28;20344;-80
2023/09/13 07:14:11;;;;;;;18.38;5.38;;;;;;;18.59;49.46;94266.31;5065779;28;20046;-80
2023/09/13 07:16:37;;;;;;;16.08;5.15;;;;;;;18.69;49.45;94256.09;5083461;28;20032;-80
2023/09/13 07:19:03;;;;;;;19.25;5.13;;;;;;;18.80;49.59;94257.09;5065898;28;20024;-80
2023/09/13 07:21:29;;;;;;;17.75;4.93;;;;;;;18.92;49.21;94254.25;5066071;28;20032;-79
2023/09/13 07:23:54;;;;;;;20.55;5.35;;;;;;;19.07;49.21;94254.53;5083687;28;20030;-80
2023/09/13 07:26:20;;;;;;;12.48;4.00;;;;;;;19.20;49.25;94259.44;5083520;28;20223;-81
2023/09/13 07:28:45;;;;;;;24.17;5.63;;;;;;;19.39;48.30;94264.00;5083690;28;20024;-80
2023/09/13 07:31:11;;;;;;;14.57;4.18;;;;;;;19.52;47.52;94263.84;5083407;28;20099;-76
2023/09/13 07:33:37;;;;;;;18.92;4.55;;;;;;;19.62;47.09;94260.53;5065763;28;20120;-75
2023/09/13 07:36:03;;;;;;;26.05;4.53;;;;;;;19.73;46.13;94258.84;5083251;28;20039;-76
2023/09/13 07:38:28;;;;;;;18.95;5.18;;;;;;;19.87;46.20;94257.53;5083516;28;20051;-75
2023/09/13 07:40:53;;;;;;;16.80;4.95;;;;;;;19.94;45.84;94252.22;5083257;28;20024;-76
2023/09/13 07:43:19;;;;;;;17.67;4.63;;;;;;;19.97;45.60;94254.19;5083244;28;20031;-75
2023/09/13 07:45:48;;;;;;;13.95;4.05;;;;;;;20.09;45.59;94259.41;5083182;28;20200;-76
2023/09/13 07:48:14;;;;;;;23.98;4.80;;;;;;;20.12;44.44;94253.25;5083266;28;20218;-77
2023/09/13 07:50:40;;;;;;;13.15;4.28;;;;;;;20.21;44.70;94251.09;5083247;28;20017;-75
2023/09/13 07:53:07;;;;;;;12.85;3.92;;;;;;;20.32;44.50;94250.47;5082965;28;20020;-76
2023/09/13 07:55:33;;;;;;;19.05;4.00;;;;;;;20.39;44.02;94250.53;5065286;28;20031;-77
2023/09/13 07:57:59;;;;;;;13.15;4.22;;;;;;;20.49;44.27;94249.91;5082561;28;20020;-75
2023/09/13 08:00:25;;;;;;;13.65;3.25;;;;;;;20.57;44.22;94251.56;5082991;28;20046;-76
2023/09/13 08:02:50;;;;;;;14.38;3.40;;;;;;;20.70;44.01;94245.94;5082930;28;20044;-74
2023/09/13 08:05:16;;;;;;;17.92;4.22;;;;;;;20.81;43.38;94250.34;5082963;28;20299;-75
2023/09/13 08:07:43;;;;;;;15.38;3.72;;;;;;;20.92;43.33;94244.28;5083006;28;20044;-75
2023/09/13 08:10:09;;;;;;;12.13;4.22;;;;;;;21.01;42.27;94244.78;5082711;28;20027;-74
2023/09/13 08:12:34;;;;;;;9.43;3.13;;;;;;;20.93;41.99;94246.63;5083127;28;20048;-73
2023/09/13 08:14:59;;;;;;;15.07;4.43;;;;;;;20.98;41.64;94249.00;5083186;28;20020;-74
2023/09/13 08:17:25;;;;;;;8.88;3.25;;;;;;;21.09;40.80;94251.84;5082940;28;20048;-74
2023/09/13 08:19:50;;;;;;;7.85;2.72;;;;;;;21.15;40.69;94252.31;5064550;28;20378;-74
2023/09/13 08:22:16;;;;;;;17.17;3.72;;;;;;;21.16;40.49;94251.13;5082869;28;20024;-75
2023/09/13 08:24:41;;;;;;;20.42;4.15;;;;;;;21.20;40.80;94254.66;5082938;28;20045;-74
2023/09/13 08:27:07;;;;;;;32.40;3.67;;;;;;;21.24;40.32;94240.00;5083000;28;20187;-74
2023/09/13 08:29:34;;;;;;;12.88;4.03;;;;;;;21.27;40.46;94243.91;5082564;28;20047;-74
2023/09/13 08:31:59;;;;;;;14.60;3.75;;;;;;;21.36;40.57;94241.66;5082808;28;20020;-77
2023/09/13 08:34:25;;;;;;;15.40;3.28;;;;;;;21.43;40.95;94240.97;5082509;28;20020;-74
2023/09/13 08:36:53;;;;;;;14.23;3.75;;;;;;;21.56;41.17;94244.22;5081333;28;20021;-74
2023/09/13 08:39:19;;;;;;;14.57;3.75;;;;;;;21.66;41.03;94243.53;5082568;28;20118;-74
2023/09/13 08:41:49;;;;;;;7.22;3.30;;;;;;;21.78;40.88;94245.19;5082709;28;20326;-75
2023/09/13 08:44:20;;;;;;;9.65;3.72;;;;;;;21.90;40.34;94242.19;5082448;28;20356;-74
2023/09/13 08:46:48;;;;;;;14.40;3.33;;;;;;;22.01;39.62;94236.84;5082547;28;20195;-73
2023/09/13 08:49:16;;;;;;;6.63;2.88;;;;;;;22.16;39.94;94243.91;5082552;28;20028;-75
2023/09/13 08:51:46;;;;;;;18.02;2.85;;;;;;;22.32;39.57;94232.78;5082348;28;20032;-75
2023/09/13 08:54:13;;;;;;;14.82;3.58;;;;;;;22.43;39.50;94227.44;5082435;28;20036;-76
2023/09/13 08:56:42;;;;;;;12.23;3.40;;;;;;;22.58;38.56;94242.66;5082358;28;20027;-74
2023/09/13 08:59:08;;;;;;;10.93;3.13;;;;;;;22.69;38.39;94225.63;5064459;28;20070;-76
2023/09/13 09:01:35;;;;;;;12.20;4.20;;;;;;;22.81;37.80;94226.06;5082439;28;20047;-76
2023/09/13 09:04:01;;;;;;;12.93;3.13;;;;;;;22.97;38.16;94219.53;5082704;28;20020;-76
2023/09/13 09:06:27;;;;;;;18.40;2.85;;;;;;;23.11;37.00;94221.53;5081966;28;20024;-76
2023/09/13 09:08:53;;;;;;;11.77;3.67;;;;;;;23.21;37.01;94229.72;5083432;28;20020;-76
2023/09/13 09:11:22;;;;;;;13.32;3.00;;;;;;;23.30;37.55;94218.47;5086034;28;20330;-76
2023/09/13 09:13:48;;;;;;;11.27;3.13;;;;;;;23.39;36.95;94218.88;5085887;28;20242;-74
2023/09/13 09:16:16;;;;;;;6.95;3.10;;;;;;;23.44;36.03;94220.44;5084425;28;20027;-77
2023/09/13 09:18:43;;;;;;;12.45;3.67;;;;;;;23.51;35.77;94216.94;5084285;28;20384;-74
2023/09/13 09:21:09;;;;;;;19.38;3.38;;;;;;;23.57;37.00;94215.41;5083819;28;20024;-73
2023/09/13 09:23:35;;;;;;;12.50;3.25;;;;;;;23.64;36.24;94215.41;5083979;28;20035;-73
2023/09/13 09:26:03;;;;;;;13.88;3.95;;;;;;;23.71;37.28;94212.72;5084086;28;20046;-76
2023/09/13 09:28:29;;;;;;;14.50;3.35;;;;;;;23.78;36.51;94220.13;5084329;28;20020;-73
2023/09/13 09:30:54;;;;;;;20.92;3.90;;;;;;;23.82;36.53;94221.66;5084879;28;20131;-75
2023/09/13 09:33:30;;;;;;;13.68;3.05;;;;;;;23.88;36.74;94211.19;5085780;28;20016;-75
2023/09/13 09:35:57;;;;;;;17.45;5.60;;;;;;;23.89;36.51;94218.16;5085813;28;20047;-74
2023/09/13 09:38:24;;;;;;;12.52;3.45;;;;;;;23.97;36.80;94217.00;5085632;28;20062;-76
2023/09/13 09:40:53;;;;;;;9.70;3.00;;;;;;;24.09;36.41;94210.38;5085401;28;20219;-76
2023/09/13 09:43:18;;;;;;;9.57;2.97;;;;;;;24.18;36.71;94208.03;5085709;28;20016;-83
2023/09/13 09:45:43;;;;;;;6.18;2.65;;;;;;;24.29;36.44;94212.69;5085544;28;20099;-80
2023/09/13 09:48:10;;;;;;;9.77;2.88;;;;;;;24.44;35.20;94211.47;5085605;28;20023;-80
2023/09/13 09:50:37;;;;;;;7.10;3.58;;;;;;;24.56;35.32;94202.91;5085360;28;20024;-80
2023/09/13 09:53:09;;;;;;;6.72;3.13;;;;;;;24.71;36.48;94211.03;5085561;28;20089;-79
2023/09/13 09:55:35;;;;;;;;;;;;;;;24.85;37.71;94205.53;5084610;28;20252;-80
2023/09/13 09:58:02;;;;;;;8.45;3.22;;;;;;;24.86;34.53;94192.69;5085457;28;20075;-79
2023/09/13 10:00:27;;;;;;;10.45;3.58;;;;;;;24.92;34.43;94191.88;5085438;28;20031;-80
2023/09/13 10:02:53;;;;;;;12.57;3.40;;;;;;;24.98;34.35;94184.06;5083913;28;20040;-80
2023/09/13 10:05:20;;;;;;;21.45;4.07;;;;;;;25.08;34.16;94185.97;5083368;28;20134;-80
2023/09/13 10:07:56;;;;;;;10.80;3.58;;;;;;;25.16;34.42;94183.97;5083019;28;20028;-79
2023/09/13 10:10:30;;;;;;;12.55;3.60;;;;;;;25.19;34.06;94186.66;5083108;28;20223;-80
2023/09/13 10:12:55;;;;;;;10.88;3.22;;;;;;;25.19;33.10;94183.94;5083228;28;20036;-79
2023/09/13 10:15:21;;;;;;;17.90;4.03;;;;;;;25.30;34.61;94181.19;5083104;28;20081;-81
2023/09/13 10:17:48;;;;;;;13.77;2.95;;;;;;;25.49;34.71;94176.38;5083942;28;20127;-82
2023/09/13 10:20:17;;;;;;;12.68;3.33;;;;;;;25.65;35.43;94178.63;5084206;28;20029;-82
2023/09/13 10:22:45;;;;;;;11.00;3.17;;;;;;;25.77;32.90;94175.41;5084649;28;20338;-83
2023/09/13 10:25:14;;;;;;;8.25;3.10;;;;;;;25.81;32.16;94176.13;5084735;28;20091;-82
2023/09/13 10:27:46;;;;;;;16.63;4.30;;;;;;;25.85;32.94;94170.63;5084852;28;20056;-81
2023/09/13 10:30:16;;;;;;;15.05;4.07;;;;;;;25.90;33.16;94165.53;5084702;28;20054;-82
2023/09/13 10:32:48;;;;;;;11.30;3.17;;;;;;;25.97;33.06;94170.97;5084989;28;20070;-85
2023/09/13 10:35:15;;;;;;;20.40;4.07;;;;;;;26.10;32.78;94182.16;5083610;28;20111;-80
2023/09/13 10:37:55;;;;;;;10.88;3.50;;;;;;;26.28;33.91;94170.28;5084533;28;20036;-81
2023/09/13 10:40:34;;;;;;;8.95;2.88;;;;;;;26.46;33.78;94162.66;5084775;28;20337;-82
2023/09/13 10:43:01;;;;;;;14.85;3.90;;;;;;;26.62;32.76;94162.09;5084759;28;20350;-82
2023/09/13 10:45:27;;;;;;;16.52;3.88;;;;;;;26.72;32.67;94166.66;5084795;28;20020;-82
2023/09/13 10:47:54;;;;;;;13.65;3.65;;;;;;;26.83;31.73;94161.09;5084663;28;20047;-80
2023/09/13 10:50:20;;;;;;;15.07;3.40;;;;;;;26.91;32.57;94154.34;5084816;28;20144;-82
2023/09/13 10:52:46;;;;;;;13.00;3.60;;;;;;;27.06;33.67;94154.91;5066601;28;20073;-83
2023/09/13 10:55:12;;;;;;;13.48;3.45;;;;;;;27.17;31.27;94147.34;5084894;28;20095;-82
2023/09/13 10:57:40;;;;;;;7.28;3.15;;;;;;;27.32;33.06;94144.44;5066775;28;20030;-79
2023/09/13 11:00:12;;;;;;;19.10;4.45;;;;;;;27.47;31.13;94144.97;5084172;28;20030;-79
2023/09/13 11:02:43;;;;;;;9.57;3.67;;;;;;;27.61;32.02;94133.81;5066707;28;20090;-79
2023/09/13 11:05:13;;;;;;;19.60;4.27;;;;;;;27.75;31.45;94143.75;5084325;28;20024;-82
2023/09/13 11:07:48;;;;;;;6.20;2.83;;;;;;;27.85;30.67;94140.06;5083941;28;20027;-81
2023/09/13 11:10:14;;;;;;;11.52;2.88;;;;;;;27.84;29.65;94143.22;5083955;28;20034;-81
2023/09/13 11:12:50;;;;;;;18.40;3.92;;;;;;;27.75;31.38;94135.53;5083951;28;20028;-81
2023/09/13 11:15:24;;;;;;;10.40;2.55;;;;;;;27.81;30.98;94131.13;5066232;28;20032;-81
2023/09/13 11:17:52;;;;;;;5.28;2.85;;;;;;;27.87;30.80;94128.72;5066081;28;20095;-81
2023/09/13 11:20:28;;;;;;;12.38;3.20;;;;;;;27.92;30.68;94131.72;5083798;28;20024;-81
2023/09/13 11:23:01;;;;;;;8.75;3.03;;;;;;;27.90;30.88;94130.59;5066006;28;20231;-81
2023/09/13 11:25:33;;;;;;;11.77;3.28;;;;;;;27.98;30.89;94121.84;5084426;28;20024;-84
2023/09/13 11:28:02;;;;;;;25.23;3.40;;;;;;;28.11;30.46;94123.97;5066505;28;20058;-83